HTZA/ZNZ METAR and TAF weather

Enter ICAO airport designator
Station Type Date Time Source
HTZA METAR 2019/10/21 23:00 UTC NOAA

HTZA 212300Z 00000KT 9999 FEW012 25/24 Q1010 NOSIG


Station Type Date Time Source
HTZA Decoded METAR 2019/10/21 23:00 UTC NOAA

Zanzibar / Kisauni, Tanzania (HTZA) 06-13S 039-13E 15M
Oct 21, 2019 - 07:00 PM EDT / 2019.10.21 2300 UTC
Wind: Calm:0
Visibility: greater than 7 mile(s):0
Sky conditions: mostly clear
Temperature: 77 F (25 C)
Dew Point: 75 F (24 C)
Relative Humidity: 94%
Pressure (altimeter): 29.83 in. Hg (1010 hPa)
ob: HTZA 212300Z 00000KT 9999 FEW012 25/24 Q1010 NOSIG
cycle: 23

Station Type Date Time Source
HTZA TAF 2019/10/21 18:54 UTC NOAA

TAF HTZA 211700Z 2118/2218 00000KT 9999 SCT016
TEMPO 2203/2210 20010KT 5000 TSRA BKN012 FEW014CB
BECMG 2212/2214 13010KT SCT018 FEW020CB

Example: see airport list